Time;durP1;ratioP1;P1;durP2;ratioP2;P2;SDS_P1;SDS_P2;PMS_P1;PMS_P2;Temp;Humidity;BMP_temperature;BMP_pressure;BME280_temperature;BME280_humidity;BME280_pressure;Samples;Min_cycle;Max_cycle;Signal;HPM_P1;HPM_P2
2022/06/17 00:01:54;;;;;;;22.35;15.25;;;13.50;1.00;;;;;;4998492;28;20023;-80
2022/06/17 00:04:19;;;;;;;21.20;15.52;;;13.50;1.00;;;;;;4998111;28;20042;-80
2022/06/17 00:06:53;;;;;;;21.48;15.07;;;13.40;1.00;;;;;;4998218;28;20031;-80
2022/06/17 00:09:21;;;;;;;22.67;16.02;;;13.20;1.00;;;;;;4997489;28;20033;-80
2022/06/17 00:11:46;;;;;;;23.27;16.80;;;13.20;1.00;;;;;;4998156;28;20050;-80
2022/06/17 00:14:15;;;;;;;22.17;16.13;;;13.30;1.00;;;;;;4998258;28;20108;-80
2022/06/17 00:16:42;;;;;;;23.73;16.23;;;13.30;1.00;;;;;;4998074;28;20034;-79
2022/06/17 00:19:08;;;;;;;23.75;17.33;;;13.40;1.00;;;;;;4996752;28;20454;-80
2022/06/17 00:21:37;;;;;;;25.67;16.92;;;13.20;1.00;;;;;;4998689;28;20022;-80
2022/06/17 00:24:20;;;;;;;23.08;16.45;;;13.20;1.00;;;;;;4998157;28;20041;-79
2022/06/17 00:26:46;;;;;;;22.73;16.40;;;13.10;1.00;;;;;;4997291;28;20055;-80
2022/06/17 00:29:18;;;;;;;22.92;15.68;;;13.10;1.00;;;;;;4997776;28;20066;-80
2022/06/17 00:31:44;;;;;;;22.50;15.43;;;13.10;1.00;;;;;;4997638;28;20096;-80
2022/06/17 00:34:10;;;;;;;21.33;15.95;;;13.00;1.00;;;;;;4997757;28;20470;-80
2022/06/17 00:36:36;;;;;;;23.50;15.57;;;13.00;1.00;;;;;;4997265;28;20034;-80
2022/06/17 00:39:09;;;;;;;23.92;14.93;;;13.00;1.00;;;;;;4997631;28;20251;-80
2022/06/17 00:41:37;;;;;;;19.75;15.43;;;12.90;1.00;;;;;;4997598;28;20537;-80
2022/06/17 00:44:16;;;;;;;23.02;16.38;;;12.80;1.00;;;;;;4997246;28;20022;-79
2022/06/17 00:47:01;;;;;;;22.83;16.40;;;12.80;1.00;;;;;;4997214;28;20105;-80
2022/06/17 00:49:46;;;;;;;23.02;15.68;;;12.70;1.00;;;;;;4996971;28;20030;-79
2022/06/17 00:52:34;;;;;;;20.88;13.98;;;12.70;1.00;;;;;;4997768;28;20505;-80
2022/06/17 00:55:30;;;;;;;19.08;14.07;;;12.70;1.00;;;;;;4996539;28;20030;-80
2022/06/17 00:57:59;;;;;;;20.48;14.13;;;12.70;1.00;;;;;;4996657;28;20022;-79
2022/06/17 01:00:27;;;;;;;20.20;14.48;;;12.70;1.00;;;;;;4996529;28;20647;-80
2022/06/17 01:03:07;;;;;;;17.75;13.77;;;12.60;1.00;;;;;;4997247;28;20042;-80
2022/06/17 01:05:38;;;;;;;18.08;12.80;;;12.60;1.00;;;;;;4996904;28;20504;-80
2022/06/17 01:08:12;;;;;;;19.15;13.48;;;12.60;1.00;;;;;;4996220;28;20038;-80
2022/06/17 01:10:46;;;;;;;21.80;14.57;;;12.60;1.00;;;;;;4997249;28;20026;-79
2022/06/17 01:13:12;;;;;;;18.63;13.77;;;12.50;1.00;;;;;;4996527;28;20101;-80
2022/06/17 01:15:40;;;;;;;20.33;14.50;;;12.50;1.00;;;;;;4996334;28;20026;-80
2022/06/17 01:18:06;;;;;;;21.60;14.85;;;12.50;99.90;;;;;;4996754;28;20105;-80
2022/06/17 01:20:32;;;;;;;19.25;14.10;;;12.50;1.00;;;;;;4996579;28;20046;-80
2022/06/17 01:23:05;;;;;;;19.98;14.90;;;12.50;1.00;;;;;;4996881;28;20485;-79
2022/06/17 01:25:43;;;;;;;20.38;14.43;;;12.50;1.00;;;;;;4996696;28;20030;-79
2022/06/17 01:28:12;;;;;;;18.40;13.38;;;12.50;1.00;;;;;;4962927;28;20047;-80
2022/06/17 01:30:40;;;;;;;22.33;14.07;;;12.50;1.00;;;;;;4957913;28;20099;-80
2022/06/17 01:33:17;;;;;;;16.23;12.65;;;12.40;1.00;;;;;;4957991;28;20031;-80
2022/06/17 01:35:49;;;;;;;17.90;12.95;;;12.40;1.00;;;;;;4957510;28;20034;-80
2022/06/17 01:38:15;;;;;;;17.67;13.13;;;12.40;1.00;;;;;;4957628;28;20023;-80
2022/06/17 01:40:42;;;;;;;17.73;13.13;;;12.50;1.00;;;;;;4958328;28;20031;-79
2022/06/17 01:43:11;;;;;;;17.38;12.68;;;12.30;1.00;;;;;;4956719;29;20471;-80
2022/06/17 01:45:47;;;;;;;17.43;12.70;;;12.40;1.00;;;;;;4958399;28;20031;-79
2022/06/17 01:48:15;;;;;;;16.50;11.85;;;12.50;1.00;;;;;;4955975;28;20609;-79
2022/06/17 01:50:43;;;;;;;19.65;12.02;;;12.40;1.00;;;;;;4957798;28;20023;-79
2022/06/17 01:53:14;;;;;;;17.30;12.73;;;12.30;1.00;;;;;;4957580;28;20471;-79
2022/06/17 01:55:41;;;;;;;;;;;12.40;1.00;;;;;;4958285;28;20086;-79
2022/06/17 01:58:13;;;;;;;17.77;12.48;;;12.40;1.00;;;;;;4957732;28;20339;-79
2022/06/17 02:00:41;;;;;;;17.67;11.15;;;12.30;1.00;;;;;;4958171;28;20426;-79
2022/06/17 02:03:20;;;;;;;23.00;11.48;;;12.30;1.00;;;;;;4957902;28;20087;-79
2022/06/17 02:05:52;;;;;;;14.63;11.07;;;12.20;1.00;;;;;;4956335;28;20046;-79
2022/06/17 02:08:18;;;;;;;14.98;11.30;;;12.20;1.00;;;;;;4957856;28;20162;-80
2022/06/17 02:10:46;;;;;;;18.45;12.07;;;12.20;1.00;;;;;;4957609;28;20090;-79
2022/06/17 02:13:13;;;;;;;14.98;11.40;;;12.10;1.00;;;;;;4957228;28;20035;-79
2022/06/17 02:15:39;;;;;;;15.27;10.93;;;12.10;1.00;;;;;;4957474;28;20082;-79
2022/06/17 02:18:13;;;;;;;14.85;11.07;;;12.10;1.00;;;;;;4957212;28;20042;-80
2022/06/17 02:20:40;;;;;;;15.07;11.25;;;12.30;1.00;;;;;;4957525;28;20062;-79
2022/06/17 02:23:07;;;;;;;16.13;12.05;;;12.40;1.00;;;;;;4957941;28;20035;-79
2022/06/17 02:25:49;;;;;;;15.32;11.07;;;12.60;1.00;;;;;;4956812;28;20042;-79
2022/06/17 02:28:16;;;;;;;18.08;12.05;;;12.70;1.00;;;;;;4956863;28;20049;-80
2022/06/17 02:30:43;;;;;;;16.27;11.88;;;12.80;1.00;;;;;;4957999;28;20671;-80
2022/06/17 02:33:10;;;;;;;17.67;12.10;;;13.00;1.00;;;;;;4957692;28;20078;-79
2022/06/17 02:35:36;;;;;;;16.27;11.82;;;12.90;1.00;;;;;;4956579;28;20058;-80
2022/06/17 02:38:01;;;;;;;15.30;11.27;;;12.80;1.00;;;;;;4956519;28;20024;-80
2022/06/17 02:40:40;;;;;;;17.73;12.20;;;12.90;1.00;;;;;;4956418;28;20115;-80
2022/06/17 02:43:12;;;;;;;16.17;11.23;;;12.90;1.00;;;;;;4956934;28;20038;-80
2022/06/17 02:45:43;;;;;;;20.08;12.15;;;12.90;1.00;;;;;;4956821;29;20031;-79
2022/06/17 02:48:20;;;;;;;14.68;11.15;;;13.10;1.00;;;;;;4956647;28;20034;-80
2022/06/17 02:50:46;;;;;;;14.60;10.90;;;13.10;99.90;;;;;;4956532;28;20027;-80
2022/06/17 02:53:12;;;;;;;15.88;11.65;;;13.00;99.90;;;;;;4956822;28;20391;-80
2022/06/17 02:55:42;;;;;;;16.35;11.77;;;13.00;1.00;;;;;;4956388;28;20027;-79
2022/06/17 02:58:33;;;;;;;17.48;12.70;;;13.00;1.00;;;;;;4956488;28;20024;-80
2022/06/17 03:00:59;;;;;;;13.50;11.20;;;12.90;1.00;;;;;;4940742;29;20027;-80
2022/06/17 03:03:26;;;;;;;14.82;11.60;;;12.80;1.00;;;;;;4956299;28;20185;-79
2022/06/17 03:05:52;;;;;;;16.50;11.48;;;12.80;1.00;;;;;;4956443;28;20022;-80
2022/06/17 03:08:29;;;;;;;16.95;12.60;;;12.80;1.00;;;;;;4956421;28;20078;-80
2022/06/17 03:10:57;;;;;;;16.75;11.77;;;12.90;1.00;;;;;;4956596;28;20031;-79
2022/06/17 03:13:35;;;;;;;15.50;11.48;;;12.90;1.00;;;;;;4956795;28;20038;-80
2022/06/17 03:16:03;;;;;;;16.70;11.73;;;12.90;1.00;;;;;;4956963;28;20106;-80
2022/06/17 03:18:29;;;;;;;16.02;11.55;;;13.00;1.00;;;;;;4958826;28;20061;-79
2022/06/17 03:20:56;;;;;;;14.75;11.57;;;13.10;1.00;;;;;;4960852;28;20027;-79
2022/06/17 03:23:33;;;;;;;16.85;11.95;;;13.10;1.00;;;;;;4960845;28;20059;-79
2022/06/17 03:26:16;;;;;;;15.55;11.50;;;13.20;1.00;;;;;;4960022;28;20074;-79
2022/06/17 03:28:45;;;;;;;18.63;12.27;;;13.30;1.00;;;;;;4959829;28;20047;-80
2022/06/17 03:31:23;;;;;;;18.25;13.23;;;13.40;1.00;;;;;;4959792;28;20027;-80
2022/06/17 03:33:56;;;;;;;16.63;12.88;;;13.60;1.00;;;;;;4959761;28;20582;-80
2022/06/17 03:36:32;;;;;;;16.38;12.13;;;13.70;1.00;;;;;;4958183;28;20095;-80
2022/06/17 03:39:00;;;;;;;19.95;12.40;;;13.70;1.00;;;;;;4959750;28;20027;-79
2022/06/17 03:41:42;;;;;;;16.65;12.45;;;13.80;1.00;;;;;;4960010;28;20459;-79
2022/06/17 03:44:12;;;;;;;15.75;11.88;;;13.90;1.00;;;;;;4960186;28;20051;-80
2022/06/17 03:46:45;;;;;;;17.02;12.15;;;13.90;1.00;;;;;;4960012;28;20031;-79
2022/06/17 03:49:51;;;;;;;16.17;11.98;;;14.10;1.00;;;;;;4959799;28;20028;-79
2022/06/17 03:52:42;;;;;;;17.25;12.55;;;14.30;1.00;;;;;;4938625;29;20123;-79
2022/06/17 03:55:13;;;;;;;16.15;11.55;;;14.50;1.00;;;;;;4960081;28;20027;-79
2022/06/17 03:57:41;;;;;;;15.65;11.63;;;14.80;1.00;;;;;;4960150;28;20023;-79
2022/06/17 04:00:32;;;;;;;13.85;11.65;;;14.90;1.00;;;;;;4959828;28;20374;-80
2022/06/17 04:03:00;;;;;;;16.65;12.50;;;15.00;1.00;;;;;;4960016;28;20118;-79
2022/06/17 04:05:35;;;;;;;12.65;10.82;;;15.00;1.00;;;;;;4959845;28;20046;-79
2022/06/17 04:08:00;;;;;;;15.88;12.43;;;15.00;1.00;;;;;;4959675;28;20050;-80
2022/06/17 04:10:29;;;;;;;16.88;12.32;;;15.00;1.00;;;;;;4959398;28;20035;-79
2022/06/17 04:12:55;;;;;;;13.75;11.50;;;15.00;1.00;;;;;;4959042;28;20024;-80
2022/06/17 04:15:41;;;;;;;15.30;11.45;;;15.10;1.00;;;;;;4958723;28;20046;-80
2022/06/17 04:18:08;;;;;;;15.63;11.70;;;15.10;99.90;;;;;;4959620;28;20360;-80
2022/06/17 04:20:46;;;;;;;14.65;11.38;;;15.30;1.00;;;;;;4959767;28;20023;-79
2022/06/17 04:23:18;;;;;;;14.38;11.73;;;15.20;1.00;;;;;;4959776;28;20035;-79
2022/06/17 04:25:49;;;;;;;15.75;12.48;;;15.10;99.90;;;;;;4958971;28;20022;-79
2022/06/17 04:28:20;;;;;;;15.90;12.13;;;15.40;1.00;;;;;;4958437;28;20051;-80
2022/06/17 04:30:52;;;;;;;14.07;11.85;;;15.40;1.00;;;;;;4958293;28;20031;-79
2022/06/17 04:33:26;;;;;;;15.13;12.15;;;15.40;1.00;;;;;;4959448;28;20031;-79
2022/06/17 04:35:58;;;;;;;14.55;12.02;;;15.50;1.00;;;;;;4958739;28;20031;-79
2022/06/17 04:38:25;;;;;;;16.20;11.88;;;15.50;1.00;;;;;;4958525;28;20030;-79
2022/06/17 04:40:55;;;;;;;15.48;12.38;;;15.60;1.00;;;;;;4958933;28;20028;-79
2022/06/17 04:43:28;;;;;;;15.75;11.43;;;15.60;1.00;;;;;;4958687;28;20444;-80
2022/06/17 04:46:10;;;;;;;17.63;12.43;;;15.60;99.90;;;;;;4958403;28;20031;-80
2022/06/17 04:48:36;;;;;;;13.23;11.27;;;15.60;1.00;;;;;;4958445;28;20035;-79
2022/06/17 04:51:03;;;;;;;15.10;11.80;;;15.60;99.90;;;;;;4959120;28;20030;-80
2022/06/17 04:53:31;;;;;;;15.57;11.75;;;15.70;99.90;;;;;;4959864;28;20059;-80
2022/06/17 04:55:57;;;;;;;17.15;11.50;;;15.80;99.90;;;;;;4960719;28;20041;-79
2022/06/17 04:58:25;;;;;;;16.17;11.52;;;15.80;1.00;;;;;;4960918;28;20094;-79
2022/06/17 05:00:54;;;;;;;14.88;11.63;;;16.00;99.90;;;;;;4962248;28;20551;-80
2022/06/17 05:03:22;;;;;;;16.98;11.98;;;16.00;1.00;;;;;;4962479;28;20059;-79
2022/06/17 05:05:48;;;;;;;16.98;12.10;;;16.10;1.00;;;;;;4962133;28;20110;-79
2022/06/17 05:08:22;;;;;;;16.67;12.82;;;16.30;1.00;;;;;;4961590;28;20432;-79
2022/06/17 05:10:55;;;;;;;14.10;11.10;;;16.40;99.90;;;;;;4960401;28;20546;-79
2022/06/17 05:13:24;;;;;;;16.85;12.15;;;16.60;99.90;;;;;;4961572;28;20517;-79
2022/06/17 05:15:50;;;;;;;18.35;12.45;;;16.80;99.90;;;;;;4961532;28;20042;-79
2022/06/17 05:18:17;;;;;;;13.75;11.48;;;17.20;99.90;;;;;;4961962;28;20110;-79
2022/06/17 05:20:44;;;;;;;14.07;10.82;;;17.90;99.90;;;;;;4962301;28;20024;-79
2022/06/17 05:23:13;;;;;;;14.73;11.68;;;18.00;99.90;;;;;;4959237;28;20035;-79
2022/06/17 05:25:42;;;;;;;13.82;11.35;;;18.10;99.90;;;;;;4958566;28;20023;-79
2022/06/17 05:28:20;;;;;;;14.73;11.32;;;17.80;99.90;;;;;;4957858;28;20079;-79
2022/06/17 05:30:54;;;;;;;17.88;11.90;;;17.90;99.90;;;;;;4959446;28;20114;-79
2022/06/17 05:33:21;;;;;;;15.07;11.23;;;17.90;99.90;;;;;;4958748;28;20035;-79
2022/06/17 05:35:47;;;;;;;15.93;11.63;;;17.70;99.90;;;;;;4958157;28;20031;-79
2022/06/17 05:38:13;;;;;;;13.57;11.68;;;17.70;99.90;;;;;;4957040;29;20054;-79
2022/06/17 05:40:40;;;;;;;12.88;11.35;;;17.80;99.90;;;;;;4958238;28;20428;-79
2022/06/17 05:43:06;;;;;;;13.63;11.38;;;17.70;99.90;;;;;;4958236;28;20027;-79
2022/06/17 05:45:32;;;;;;;14.65;11.65;;;17.80;99.90;;;;;;4957835;28;20478;-80
2022/06/17 05:47:58;;;;;;;15.30;11.73;;;17.90;99.90;;;;;;4957749;28;20038;-79
2022/06/17 05:50:25;;;;;;;14.18;11.32;;;18.10;99.90;;;;;;4957730;28;20031;-79
2022/06/17 05:52:57;;;;;;;15.10;9.88;;;18.30;99.90;;;;;;4958564;28;20031;-79
2022/06/17 05:55:24;;;;;;;13.55;11.77;;;18.50;99.90;;;;;;4958904;28;20055;-79
2022/06/17 05:57:50;;;;;;;13.85;11.13;;;18.80;99.90;;;;;;4958886;28;20027;-79
2022/06/17 06:00:17;;;;;;;15.48;11.68;;;18.80;99.90;;;;;;4958418;28;20026;-79
2022/06/17 06:02:43;;;;;;;14.82;11.13;;;18.80;99.90;;;;;;4957277;29;20103;-79
2022/06/17 06:05:13;;;;;;;14.63;11.57;;;19.00;99.90;;;;;;4958558;28;20452;-79
2022/06/17 06:07:39;;;;;;;14.48;11.27;;;19.10;99.90;;;;;;4973646;28;20031;-78
2022/06/17 06:10:07;;;;;;;16.65;12.30;;;19.10;99.90;;;;;;4958345;28;20058;-78
2022/06/17 06:15:17;;;;;;;15.73;11.30;;;19.40;99.90;;;;;;4958247;29;20034;-78
2022/06/17 06:17:46;;;;;;;14.07;10.90;;;19.50;99.90;;;;;;4957742;28;20023;-78
2022/06/17 06:20:13;;;;;;;14.35;10.65;;;19.60;99.90;;;;;;4958142;28;20078;-78
2022/06/17 06:22:39;;;;;;;12.95;10.68;;;19.60;99.90;;;;;;4957974;28;20034;-79
2022/06/17 06:25:06;;;;;;;12.02;10.52;;;19.90;99.90;;;;;;4957117;28;20019;-78
2022/06/17 06:27:31;;;;;;;14.15;10.00;;;20.10;99.90;;;;;;4957094;28;20043;-79
2022/06/17 06:29:58;;;;;;;12.25;9.73;;;20.40;99.90;;;;;;4957449;28;20155;-79
2022/06/17 06:32:24;;;;;;;13.60;11.30;;;20.50;99.90;;;;;;4957789;28;20554;-79
2022/06/17 06:34:51;;;;;;;10.48;9.30;;;20.60;99.90;;;;;;4957967;28;20062;-79
2022/06/17 06:37:17;;;;;;;12.82;9.82;;;20.70;99.90;;;;;;4957441;28;20079;-79
2022/06/17 06:39:42;;;;;;;10.05;9.05;;;20.90;99.90;;;;;;4957458;28;20047;-79
2022/06/17 06:42:08;;;;;;;12.23;9.30;;;20.70;99.90;;;;;;4957060;28;20019;-78
2022/06/17 06:44:34;;;;;;;11.57;9.82;;;21.10;99.90;;;;;;4957040;28;20063;-78
2022/06/17 06:46:59;;;;;;;11.93;9.68;;;21.40;99.90;;;;;;4956970;28;20023;-79
2022/06/17 06:49:25;;;;;;;12.23;8.73;;;21.80;99.90;;;;;;4957082;28;20470;-79
2022/06/17 06:51:52;;;;;;;11.95;9.23;;;21.90;99.90;;;;;;4957280;28;20369;-79
2022/06/17 06:54:17;;;;;;;12.02;8.93;;;21.90;99.90;;;;;;4961266;28;20466;-79
2022/06/17 06:56:43;;;;;;;12.85;9.10;;;22.50;99.90;;;;;;4961477;28;20031;-79
2022/06/17 06:59:11;;;;;;;10.02;8.48;;;22.20;99.90;;;;;;4960896;28;20394;-79
2022/06/17 07:01:38;;;;;;;9.52;8.50;;;21.90;99.90;;;;;;4961154;28;20032;-78
2022/06/17 07:04:04;;;;;;;11.13;8.52;;;22.30;99.90;;;;;;4960721;28;20054;-79
2022/06/17 07:06:32;;;;;;;12.32;8.70;;;22.30;99.90;;;;;;4960899;28;20023;-79
2022/06/17 07:08:58;;;;;;;10.95;8.90;;;22.20;99.90;;;;;;4960955;28;20402;-79
2022/06/17 07:11:23;;;;;;;10.65;8.32;;;22.10;99.90;;;;;;4960674;28;20471;-79
2022/06/17 07:13:49;;;;;;;11.10;8.93;;;22.30;99.90;;;;;;4960604;28;20077;-79
2022/06/17 07:16:15;;;;;;;11.63;9.02;;;22.50;99.90;;;;;;4960434;28;20035;-79
2022/06/17 07:18:41;;;;;;;10.07;7.70;;;23.10;99.90;;;;;;4960761;28;20031;-79
2022/06/17 07:21:10;;;;;;;9.20;8.00;;;23.80;99.90;;;;;;4961127;28;20474;-79
2022/06/17 07:23:42;;;;;;;11.10;8.23;;;23.70;99.90;;;;;;4960435;29;20032;-78
2022/06/17 07:26:12;;;;;;;9.35;8.10;;;23.70;99.90;;;;;;4959825;28;20035;-79
2022/06/17 07:28:38;;;;;;;9.32;7.38;;;23.50;99.90;;;;;;4959881;28;20458;-79
2022/06/17 07:31:04;;;;;;;10.27;6.97;;;23.70;99.90;;;;;;4960443;28;20035;-78
2022/06/17 07:33:31;;;;;;;9.82;7.18;;;24.00;99.90;;;;;;4960241;28;20471;-78
2022/06/17 07:35:59;;;;;;;8.65;6.80;;;24.30;99.90;;;;;;4960290;28;20034;-79
2022/06/17 07:41:16;;;;;;;7.53;6.75;;;26.40;99.90;;;;;;4960458;29;20167;-79
2022/06/17 07:43:42;;;;;;;9.90;7.38;;;26.40;99.90;;;;;;4959735;28;20438;-79
2022/06/17 07:46:08;;;;;;;8.65;7.10;;;26.90;99.90;;;;;;4959609;28;20518;-79
2022/06/17 07:48:36;;;;;;;8.45;7.43;;;32.30;99.90;;;;;;4959371;28;20027;-79
2022/06/17 07:51:01;;;;;;;8.20;6.65;;;33.90;99.90;;;;;;4959386;28;20374;-79
2022/06/17 07:53:30;;;;;;;11.02;6.68;;;33.60;99.90;;;;;;4959558;28;20027;-79
2022/06/17 07:55:58;;;;;;;9.05;6.60;;;33.20;99.90;;;;;;4959563;28;20074;-79
2022/06/17 07:58:24;;;;;;;7.82;5.80;;;32.70;99.90;;;;;;4959620;28;20030;-79
2022/06/17 08:00:49;;;;;;;11.48;7.15;;;30.90;99.90;;;;;;4959673;28;20019;-79
2022/06/17 08:03:17;;;;;;;8.82;6.60;;;29.60;99.90;;;;;;4959466;28;20769;-79
2022/06/17 08:05:51;;;;;;;7.57;5.53;;;29.00;99.90;;;;;;4959391;29;20043;-79
2022/06/17 08:08:21;;;;;;;6.72;6.03;;;29.20;99.90;;;;;;4959676;28;20063;-79
2022/06/17 08:10:52;;;;;;;6.38;5.75;;;28.70;99.90;;;;;;4974513;28;20352;-79
2022/06/17 08:13:18;;;;;;;10.25;6.55;;;28.70;99.90;;;;;;4959220;28;20027;-79
2022/06/17 08:15:44;;;;;;;7.95;5.60;;;28.20;99.90;;;;;;4959312;28;20086;-79
2022/06/17 08:18:10;;;;;;;8.30;5.88;;;28.30;99.90;;;;;;4959462;28;20067;-79
2022/06/17 08:20:36;;;;;;;7.28;5.30;;;28.50;99.90;;;;;;4959541;28;20020;-79
2022/06/17 08:23:04;;;;;;;6.60;5.68;;;27.90;99.90;;;;;;4958943;28;20034;-78
2022/06/17 08:25:31;;;;;;;6.70;5.72;;;27.40;99.90;;;;;;4958720;28;20032;-78
2022/06/17 08:27:58;;;;;;;5.82;5.18;;;27.20;99.90;;;;;;4958750;28;20055;-79
2022/06/17 08:30:27;;;;;;;7.57;5.45;;;27.40;99.90;;;;;;4958608;28;20406;-79
2022/06/17 08:32:55;;;;;;;8.05;5.43;;;27.50;99.90;;;;;;4959048;28;20027;-79
2022/06/17 08:35:34;;;;;;;6.40;5.80;;;27.80;99.90;;;;;;4958895;28;20027;-79
2022/06/17 08:38:07;;;;;;;7.63;5.40;;;27.40;99.90;;;;;;4959008;28;20027;-79
2022/06/17 08:40:47;;;;;;;7.18;5.20;;;28.00;99.90;;;;;;4958726;28;20062;-78
2022/06/17 08:43:25;;;;;;;5.60;5.03;;;28.80;99.90;;;;;;4958414;28;20027;-78
2022/06/17 08:46:09;;;;;;;7.43;5.95;;;29.80;99.90;;;;;;4958775;28;20063;-78
2022/06/17 08:48:47;;;;;;;8.40;5.00;;;29.80;99.90;;;;;;4958514;29;20038;-78
2022/06/17 08:51:40;;;;;;;6.67;5.00;;;29.40;99.90;;;;;;4958201;29;20166;-79
2022/06/17 08:54:43;;;;;;;6.10;5.05;;;29.50;99.90;;;;;;4958388;28;20098;-79
2022/06/17 08:57:18;;;;;;;5.68;4.95;;;30.00;99.90;;;;;;4958043;28;20038;-78
2022/06/17 09:00:06;;;;;;;7.55;6.10;;;30.20;99.90;;;;;;4958294;28;20050;-78
2022/06/17 09:02:52;;;;;;;7.93;6.05;;;28.90;99.90;;;;;;4958699;28;20624;-78
2022/06/17 09:05:40;;;;;;;8.15;6.00;;;29.50;99.90;;;;;;4958649;28;20035;-78
2022/06/17 09:08:55;;;;;;;6.22;5.63;;;31.40;99.90;;;;;;4958165;29;20031;-79
2022/06/17 09:11:21;;;;;;;7.32;5.75;;;34.70;99.90;;;;;;4958358;28;20028;-78
2022/06/17 09:14:27;;;;;;;8.95;6.22;;;34.40;99.90;;;;;;4958140;28;20102;-78
2022/06/17 09:17:07;;;;;;;7.55;6.03;;;37.00;99.90;;;;;;4957712;28;20027;-78
2022/06/17 09:19:36;;;;;;;8.63;5.75;;;38.80;99.90;;;;;;4958318;28;20027;-78
2022/06/17 09:22:10;;;;;;;7.57;5.80;;;37.50;99.90;;;;;;4957751;28;20113;-78
2022/06/17 09:24:42;;;;;;;7.53;5.97;;;37.10;99.90;;;;;;4957545;28;20086;-78
2022/06/17 09:27:26;;;;;;;7.53;5.40;;;36.80;99.90;;;;;;4957211;28;20499;-78
2022/06/17 09:30:03;;;;;;;7.68;5.68;;;39.70;99.90;;;;;;4957473;28;20082;-78
2022/06/17 09:32:45;;;;;;;5.88;4.90;;;41.60;99.90;;;;;;4957244;28;20032;-78
2022/06/17 09:35:33;;;;;;;7.43;5.43;;;40.30;99.90;;;;;;4957302;28;20059;-78
2022/06/17 09:38:20;;;;;;;6.70;6.05;;;40.50;99.90;;;;;;4957314;29;20026;-78
2022/06/17 09:41:01;;;;;;;8.90;6.13;;;39.90;99.90;;;;;;4957245;28;20035;-79
2022/06/17 09:43:47;;;;;;;6.50;5.40;;;40.80;99.90;;;;;;4957319;28;20435;-79
2022/06/17 09:46:36;;;;;;;8.57;6.93;;;40.30;99.90;;;;;;4957141;28;20019;-79
2022/06/17 09:49:24;;;;;;;6.72;5.97;;;38.30;99.90;;;;;;4956636;28;20051;-78
2022/06/17 09:52:13;;;;;;;6.93;5.57;;;36.50;99.90;;;;;;4957149;29;20114;-78
2022/06/17 09:54:48;;;;;;;6.00;5.50;;;36.60;99.90;;;;;;4957574;28;20467;-78
2022/06/17 09:57:23;;;;;;;8.25;6.50;;;36.70;99.90;;;;;;4957161;28;20510;-78
2022/06/17 09:59:55;;;;;;;6.82;6.20;;;36.10;99.90;;;;;;4957136;28;20019;-78
2022/06/17 10:02:29;;;;;;;7.13;5.50;;;35.40;99.90;;;;;;4956949;28;20027;-79
2022/06/17 10:04:57;;;;;;;6.45;5.75;;;35.50;99.90;;;;;;4956812;28;20082;-79
2022/06/17 10:07:30;;;;;;;6.43;5.80;;;36.80;99.90;;;;;;4957178;28;20059;-79
2022/06/17 10:10:17;;;;;;;6.95;4.95;;;37.20;99.90;;;;;;4957292;28;20038;-79
2022/06/17 10:12:45;;;;;;;6.18;5.57;;;39.90;99.90;;;;;;4956764;28;20033;-79
2022/06/17 10:15:27;;;;;;;6.80;5.47;;;39.50;99.90;;;;;;4956821;28;20023;-79
2022/06/17 10:21:09;;;;;;;8.73;5.75;;;39.30;99.90;;;;;;4956845;29;20042;-78
2022/06/17 10:23:53;;;;;;;7.80;5.82;;;38.40;99.90;;;;;;4956130;28;20102;-79
2022/06/17 10:26:52;;;;;;;8.02;5.57;;;40.40;99.90;;;;;;4956119;28;20019;-78
2022/06/17 10:29:45;;;;;;;6.10;5.50;;;41.30;99.90;;;;;;4956414;28;20042;-79
2022/06/17 10:32:10;;;;;;;7.88;5.38;;;41.00;99.90;;;;;;4956812;28;20030;-79
2022/06/17 10:34:43;;;;;;;6.50;5.80;;;41.60;99.90;;;;;;4975151;28;20027;-79
2022/06/17 10:37:10;;;;;;;7.35;6.00;;;41.90;99.90;;;;;;4975819;28;20027;-79
2022/06/17 10:39:36;;;;;;;9.55;5.85;;;41.20;99.90;;;;;;4975674;28;20101;-79
2022/06/17 10:42:05;;;;;;;7.90;6.35;;;41.60;99.90;;;;;;4975686;28;20670;-78
2022/06/17 10:44:31;;;;;;;5.88;5.22;;;42.80;99.90;;;;;;4975359;28;20030;-79
2022/06/17 10:47:39;;;;;;;6.38;5.22;;;43.70;99.90;;;;;;4975255;28;20046;-79
2022/06/17 10:50:19;;;;;;;10.35;6.18;;;43.50;99.90;;;;;;4975596;28;20035;-79
2022/06/17 10:53:02;;;;;;;6.47;5.07;;;42.40;99.90;;;;;;4975494;28;20042;-79
2022/06/17 10:55:35;;;;;;;8.07;5.45;;;43.60;99.90;;;;;;4975633;28;20030;-79
2022/06/17 10:58:09;;;;;;;9.20;5.80;;;43.40;99.90;;;;;;4975067;28;20166;-79
2022/06/17 11:00:42;;;;;;;6.43;5.20;;;42.70;99.90;;;;;;4975531;28;20459;-79
2022/06/17 11:03:24;;;;;;;6.05;5.40;;;42.60;99.90;;;;;;4975342;28;20393;-78
2022/06/17 11:06:02;;;;;;;5.80;4.90;;;43.30;99.90;;;;;;4975927;28;20050;-79
2022/06/17 11:08:40;;;;;;;7.28;4.95;;;41.70;99.90;;;;;;4975617;28;20501;-79
2022/06/17 11:13:54;;;;;;;6.93;5.38;;;41.90;99.90;;;;;;4975553;28;20552;-79
2022/06/17 11:16:22;;;;;;;5.43;4.93;;;40.50;99.90;;;;;;4975563;28;20023;-79
2022/06/17 11:19:02;;;;;;;5.80;4.88;;;39.60;99.90;;;;;;4975454;28;20030;-79
2022/06/17 11:21:33;;;;;;;5.38;4.88;;;39.00;99.90;;;;;;4975332;28;20027;-79
2022/06/17 11:23:59;;;;;;;7.97;5.47;;;36.60;99.90;;;;;;4975250;28;20027;-78
2022/06/17 11:26:30;;;;;;;6.82;5.10;;;34.50;99.90;;;;;;4975119;28;20074;-79
2022/06/17 11:29:01;;;;;;;6.07;5.30;;;34.70;99.90;;;;;;4975212;28;20051;-79
2022/06/17 11:31:26;;;;;;;6.28;5.13;;;34.70;99.90;;;;;;4975583;28;20030;-79
2022/06/17 11:33:52;;;;;;;6.88;5.10;;;34.60;99.90;;;;;;4975377;28;20027;-79
2022/06/17 11:36:22;;;;;;;8.05;5.45;;;34.30;99.90;;;;;;4975338;28;20030;-79
2022/06/17 11:38:48;;;;;;;8.65;5.82;;;33.80;99.90;;;;;;4976678;28;20074;-79
2022/06/17 11:41:25;;;;;;;5.95;5.35;;;33.60;99.90;;;;;;4978574;28;20041;-78
2022/06/17 11:43:53;;;;;;;6.90;5.25;;;33.60;99.90;;;;;;4978790;28;20041;-78
2022/06/17 11:46:24;;;;;;;5.07;4.50;;;33.50;99.90;;;;;;4978505;28;20026;-79
2022/06/17 11:49:00;;;;;;;6.22;4.60;;;33.80;99.90;;;;;;4978799;28;20031;-78
2022/06/17 11:51:25;;;;;;;7.55;5.20;;;33.80;99.90;;;;;;4978699;28;20359;-78
2022/06/17 11:54:04;;;;;;;7.55;4.78;;;33.70;99.90;;;;;;4978630;28;20027;-78
2022/06/17 11:56:42;;;;;;;7.85;4.75;;;34.20;99.90;;;;;;4978851;28;20031;-79
2022/06/17 11:59:16;;;;;;;6.00;4.90;;;33.60;99.90;;;;;;4978491;28;20022;-79
2022/06/17 12:01:49;;;;;;;5.88;4.80;;;33.20;99.90;;;;;;4978300;28;20054;-78
2022/06/17 12:04:46;;;;;;;8.82;4.80;;;32.90;99.90;;;;;;4978193;28;20146;-78
2022/06/17 12:07:40;;;;;;;5.13;3.85;;;33.30;99.90;;;;;;4978210;28;20026;-78
2022/06/17 12:10:22;;;;;;;6.38;4.65;;;33.90;99.90;;;;;;4978373;28;20105;-78
2022/06/17 12:12:50;;;;;;;9.82;5.00;;;34.40;99.90;;;;;;4978232;28;20034;-78
2022/06/17 12:15:37;;;;;;;6.53;4.80;;;33.60;99.90;;;;;;4977885;28;20112;-78
2022/06/17 12:18:04;;;;;;;5.95;4.65;;;33.30;99.90;;;;;;4978069;28;20606;-79
2022/06/17 12:20:39;;;;;;;6.50;4.70;;;32.80;99.90;;;;;;4978061;28;20026;-78
2022/06/17 12:23:17;;;;;;;5.90;4.80;;;33.20;99.90;;;;;;4976793;28;20031;-78
2022/06/17 12:25:55;;;;;;;5.22;4.47;;;33.50;99.90;;;;;;4978199;28;20023;-78
2022/06/17 12:28:35;;;;;;;7.63;4.47;;;33.60;99.90;;;;;;4978200;28;20046;-79
2022/06/17 12:31:25;;;;;;;8.15;4.63;;;33.50;99.90;;;;;;4979224;28;20042;-79
2022/06/17 12:34:21;;;;;;;8.13;4.72;;;33.00;99.90;;;;;;4978974;28;20023;-78
2022/06/17 12:36:51;;;;;;;9.65;4.80;;;32.70;99.90;;;;;;4978910;28;20114;-79
2022/06/17 12:39:19;;;;;;;9.45;4.28;;;33.10;99.90;;;;;;4978445;28;20477;-79
2022/06/17 12:42:14;;;;;;;7.45;4.53;;;33.40;99.90;;;;;;4978383;28;20027;-78
2022/06/17 12:44:59;;;;;;;5.85;4.43;;;33.50;99.90;;;;;;4978062;28;20086;-79
2022/06/17 12:48:11;;;;;;;5.35;4.60;;;33.60;99.90;;;;;;4978047;28;20035;-78
2022/06/17 12:53:50;;;;;;;4.95;3.90;;;33.20;99.90;;;;;;4978056;28;20541;-79
2022/06/17 12:56:16;;;;;;;;;;;33.90;99.90;;;;;;4978342;28;20034;-79
2022/06/17 12:59:16;;;;;;;4.78;3.97;;;33.50;99.90;;;;;;4977685;28;19906;-79
2022/06/17 13:01:53;;;;;;;8.73;4.00;;;33.00;99.90;;;;;;4977816;28;20019;-79
2022/06/17 13:04:25;;;;;;;4.30;3.80;;;33.10;99.90;;;;;;4977554;28;20031;-79
2022/06/17 13:07:04;;;;;;;5.05;3.78;;;31.90;99.90;;;;;;4977833;28;20029;-79
2022/06/17 13:09:54;;;;;;;4.57;3.65;;;32.30;99.90;;;;;;4977476;28;20027;-79
2022/06/17 13:12:33;;;;;;;3.50;3.10;;;33.20;99.90;;;;;;4977437;28;20118;-79
2022/06/17 13:15:03;;;;;;;4.28;3.63;;;34.30;99.90;;;;;;4977150;28;20027;-79
2022/06/17 13:17:32;;;;;;;;;;;33.20;99.90;;;;;;4977334;28;20106;-79
2022/06/17 13:20:13;;;;;;;5.82;3.80;;;33.00;99.90;;;;;;4976840;28;20346;-78
2022/06/17 13:22:52;;;;;;;4.35;3.80;;;32.50;99.90;;;;;;4976981;28;20500;-78
2022/06/17 13:25:37;;;;;;;4.90;3.92;;;32.90;99.90;;;;;;4976831;28;20023;-78